Terminal Aerodrome Forecast
Issued by NWS

Home | Current Version | Previous Version | Text Only | Print | Product List | Glossary On
Versions: 1 2 3 4 5 6 7 8 9 10 11 12 13
757
FTUS45 KRIW 201732
TAFCPR
TAF
KCPR 201732Z 2018/2118 24008KT 3SM -SN OVC015
      TEMPO 2018/2019 6SM -SN BKN025
     FM201900 23010KT P6SM OVC030
     FM202200 24008KT P6SM SCT035 OVC080
     FM210300 22006KT P6SM FEW080 SCT150
     FM211500 24007KT P6SM SCT150=

USA.gov is the U.S. government's official web portal to all federal, state and local government web resources and services.